createdAt,value
2022-08-22T00:02:13.784Z,101130.50
2022-08-22T00:03:12.560Z,101122.47
2022-08-22T00:03:16.107Z,101126.69
2022-08-22T00:05:35.964Z,101131.09
2022-08-22T00:08:12.633Z,101128.13
2022-08-22T00:11:14.446Z,101133.31
2022-08-22T00:14:29.366Z,101135.31
2022-08-22T00:17:24.056Z,101137.03
2022-08-22T00:20:28.052Z,101138.66
2022-08-22T00:23:08.036Z,101135.94
2022-08-22T00:26:08.793Z,101139.69
2022-08-22T00:28:42.406Z,101138.13
2022-08-22T00:31:31.916Z,101145.19
2022-08-22T00:34:30.395Z,101135.59
2022-08-22T00:37:14.978Z,101131.63
2022-08-22T00:40:03.254Z,101130.22
2022-08-22T00:43:17.040Z,101126.06
2022-08-22T00:46:40.164Z,101130.09
2022-08-22T00:49:43.885Z,101138.13
2022-08-22T00:52:55.056Z,101142.00
2022-08-22T00:56:03.713Z,101133.19
2022-08-22T00:58:49.518Z,101136.34
2022-08-22T01:01:30.503Z,101130.63
2022-08-22T01:04:38.601Z,101145.25
2022-08-22T01:07:22.198Z,101147.56
2022-08-22T01:10:28.481Z,101133.56
2022-08-22T01:13:13.594Z,101128.41
2022-08-22T01:15:42.867Z,101123.97
2022-08-22T01:18:15.451Z,101129.28
2022-08-22T01:20:54.353Z,101132.00
2022-08-22T01:24:17.424Z,101125.13
2022-08-22T01:27:36.807Z,101135.16
2022-08-22T01:30:28.449Z,101129.84
2022-08-22T01:33:38.733Z,101136.31
2022-08-22T01:36:32.782Z,101141.47
2022-08-22T01:39:31.222Z,101132.91
2022-08-22T01:42:50.247Z,101134.91
2022-08-22T01:45:51.048Z,101135.22
2022-08-22T01:48:53.900Z,101142.50
2022-08-22T01:51:58.570Z,101135.50
2022-08-22T01:54:56.457Z,101147.94
2022-08-22T01:57:24.981Z,101142.22
2022-08-22T01:59:57.784Z,101138.81
2022-08-22T02:03:08.190Z,101135.22
2022-08-22T02:05:59.244Z,101138.50
2022-08-22T02:08:44.794Z,101145.09
2022-08-22T02:11:35.365Z,101145.22
2022-08-22T02:14:32.799Z,101136.81
2022-08-22T02:17:21.226Z,101138.53
2022-08-22T02:20:17.506Z,101147.00
2022-08-22T02:22:59.612Z,101129.81
2022-08-22T02:25:45.185Z,101128.25
2022-08-22T02:28:56.503Z,101126.69
2022-08-22T02:31:49.360Z,101123.25
2022-08-22T02:34:43.133Z,101129.53
2022-08-22T02:37:42.372Z,101128.97
2022-08-22T02:40:41.011Z,101118.25
2022-08-22T02:43:28.141Z,101125.66
2022-08-22T02:46:20.068Z,101129.13
2022-08-22T02:49:15.812Z,101128.97
2022-08-22T02:52:02.373Z,101113.94
2022-08-22T02:54:45.312Z,101117.81
2022-08-22T02:57:27.475Z,101112.63
2022-08-22T03:00:30.910Z,101120.06
2022-08-22T03:03:06.568Z,101129.22
2022-08-22T03:05:36.382Z,101134.06
2022-08-22T03:08:25.010Z,101128.31
2022-08-22T03:11:19.533Z,101122.47
2022-08-22T03:14:26.334Z,101127.59
2022-08-22T03:17:06.482Z,101122.84
2022-08-22T03:20:08.008Z,101129.31
2022-08-22T03:23:07.520Z,101127.44
2022-08-22T03:26:01.263Z,101122.59
2022-08-22T03:28:59.191Z,101124.00
2022-08-22T03:31:29.489Z,101122.25
2022-08-22T03:34:21.417Z,101118.81
2022-08-22T03:37:13.493Z,101122.84
2022-08-22T03:40:08.217Z,101126.28
2022-08-22T03:42:57.759Z,101120.13
2022-08-22T03:45:44.728Z,101125.66
2022-08-22T03:48:43.220Z,101122.38
2022-08-22T03:52:10.177Z,101117.66
2022-08-22T03:55:16.072Z,101117.06
2022-08-22T03:58:27.739Z,101115.75
2022-08-22T04:01:22.754Z,101125.28
2022-08-22T04:04:10.742Z,101123.72
2022-08-22T04:06:53.656Z,101123.56
2022-08-22T04:09:54.439Z,101116.03
2022-08-22T04:13:06.554Z,101134.16
2022-08-22T04:16:20.761Z,101129.59
2022-08-22T04:19:11.988Z,101128.75
2022-08-22T04:22:24.827Z,101140.94
2022-08-22T04:25:01.117Z,101129.97
2022-08-22T04:28:11.742Z,101130.84
2022-08-22T04:30:54.170Z,101129.69
2022-08-22T04:33:32.258Z,101121.22
2022-08-22T04:36:41.090Z,101126.41
2022-08-22T04:39:20.362Z,101132.94
2022-08-22T04:42:31.306Z,101140.97
2022-08-22T04:45:10.696Z,101136.47
2022-08-22T04:47:54.038Z,101136.88
2022-08-22T04:50:35.016Z,101136.81
2022-08-22T04:53:27.489Z,101133.97
2022-08-22T04:56:11.615Z,101130.31
2022-08-22T04:58:52.438Z,101135.78
2022-08-22T05:01:47.324Z,101145.69
2022-08-22T05:04:20.221Z,101134.09
2022-08-22T05:06:54.392Z,101121.66
2022-08-22T05:09:27.948Z,101133.69
2022-08-22T05:12:09.075Z,101127.53
2022-08-22T05:14:54.444Z,101133.97
2022-08-22T05:17:27.492Z,101131.63
2022-08-22T05:19:59.370Z,101127.34
2022-08-22T05:22:37.710Z,101130.69
2022-08-22T05:25:13.106Z,101129.84
2022-08-22T05:27:48.227Z,101125.75
2022-08-22T05:30:23.829Z,101131.41
2022-08-22T05:33:04.370Z,101136.03
2022-08-22T05:35:49.259Z,101138.56
2022-08-22T05:38:28.565Z,101124.25
2022-08-22T05:41:06.086Z,101137.59
2022-08-22T05:43:41.498Z,101137.50
2022-08-22T05:46:21.457Z,101134.47
2022-08-22T05:49:00.253Z,101139.59
2022-08-22T05:52:08.808Z,101132.03
2022-08-22T05:54:58.418Z,101144.19
2022-08-22T05:57:32.054Z,101149.69
2022-08-22T06:00:21.719Z,101149.03
2022-08-22T06:03:16.081Z,101153.72
2022-08-22T06:05:52.287Z,101160.09
2022-08-22T06:08:40.311Z,101164.66
2022-08-22T06:11:18.346Z,101158.47
2022-08-22T06:13:58.458Z,101155.00
2022-08-22T06:16:51.677Z,101155.25
2022-08-22T06:19:20.279Z,101152.69
2022-08-22T06:21:52.416Z,101156.34
2022-08-22T06:24:25.260Z,101162.34
2022-08-22T06:26:58.276Z,101166.28
2022-08-22T06:29:49.265Z,101165.72
2022-08-22T06:32:31.562Z,101175.72
2022-08-22T06:35:28.511Z,101171.75
2022-08-22T06:38:01.375Z,101168.13
2022-08-22T06:40:29.734Z,101176.22
2022-08-22T06:42:58.844Z,101171.38
2022-08-22T06:45:31.804Z,101178.50
2022-08-22T06:48:08.438Z,101185.19
2022-08-22T06:50:37.154Z,101178.22
2022-08-22T06:53:19.776Z,101175.00
2022-08-22T06:55:54.755Z,101172.81
2022-08-22T06:58:46.626Z,101173.03
2022-08-22T07:01:19.742Z,101166.72
2022-08-22T07:03:54.737Z,101172.06
2022-08-22T07:06:50.007Z,101169.66
2022-08-22T07:09:32.526Z,101174.81
2022-08-22T07:12:04.687Z,101173.66
2022-08-22T07:14:43.154Z,101180.53
2022-08-22T07:17:24.388Z,101177.09
2022-08-22T07:20:35.098Z,101178.78
2022-08-22T07:23:09.095Z,101175.34
2022-08-22T07:26:31.564Z,101177.72
2022-08-22T07:29:32.569Z,101169.91
2022-08-22T07:32:13.966Z,101169.34
2022-08-22T07:34:56.760Z,101167.78
2022-08-22T07:37:43.411Z,101170.16
2022-08-22T07:40:27.483Z,101182.00
2022-08-22T07:43:32.862Z,101174.94
2022-08-22T07:46:16.325Z,101173.38
2022-08-22T07:49:08.229Z,101178.69
2022-08-22T07:51:59.843Z,101179.25
2022-08-22T07:54:46.973Z,101171.59
2022-08-22T07:57:26.663Z,101180.59
2022-08-22T07:59:56.877Z,101179.28
2022-08-22T08:02:25.138Z,101177.50
2022-08-22T08:04:55.352Z,101170.84
2022-08-22T08:07:27.741Z,101168.41
2022-08-22T08:10:11.120Z,101165.22
2022-08-22T08:13:01.941Z,101179.94
2022-08-22T08:15:34.682Z,101174.09
2022-08-22T08:18:11.228Z,101173.38
2022-08-22T08:20:39.170Z,101175.66
2022-08-22T08:23:10.232Z,101168.25
2022-08-22T08:26:24.598Z,101176.84
2022-08-22T08:28:55.934Z,101163.75
2022-08-22T08:31:38.203Z,101165.63
2022-08-22T08:34:23.099Z,101161.22
2022-08-22T08:36:56.541Z,101151.47
2022-08-22T08:39:43.250Z,101146.59
2022-08-22T08:43:06.266Z,101149.91
2022-08-22T08:46:02.637Z,101164.75
2022-08-22T08:49:06.658Z,101150.84
2022-08-22T08:51:58.876Z,101143.22
2022-08-22T08:55:19.610Z,101157.06
2022-08-22T08:58:34.369Z,101145.00
2022-08-22T09:01:34.180Z,101142.84
2022-08-22T09:04:57.323Z,101141.97
2022-08-22T09:07:59.824Z,101128.00
2022-08-22T09:11:15.189Z,101133.38
2022-08-22T09:14:02.008Z,101126.41
2022-08-22T09:17:13.799Z,101133.22
2022-08-22T09:20:17.719Z,101124.34
2022-08-22T09:23:37.148Z,101118.41
2022-08-22T09:26:17.062Z,101119.66
2022-08-22T09:29:18.183Z,101117.97
2022-08-22T09:32:07.423Z,101108.34
2022-08-22T09:34:56.812Z,101109.44
2022-08-22T09:37:36.272Z,101115.56
2022-08-22T09:43:13.208Z,101105.94
2022-08-22T09:46:29.439Z,101105.00
2022-08-22T09:49:52.328Z,101099.41
2022-08-22T09:53:18.590Z,101092.63
2022-08-22T09:56:15.258Z,101093.25
2022-08-22T09:59:17.283Z,101087.72
2022-08-22T10:02:02.812Z,101095.00
2022-08-22T10:04:56.565Z,101084.56
2022-08-22T10:07:56.049Z,101080.97
2022-08-22T10:10:56.696Z,101075.84
2022-08-22T10:13:32.681Z,101079.28
2022-08-22T10:16:37.064Z,101072.94
2022-08-22T10:19:31.934Z,101069.00
2022-08-22T10:22:29.876Z,101064.88
2022-08-22T10:25:31.228Z,101070.28
2022-08-22T10:28:16.049Z,101055.69
2022-08-22T10:31:51.075Z,101052.63
2022-08-22T10:34:35.221Z,101045.56
2022-08-22T10:37:30.220Z,101049.94
2022-08-22T10:40:30.325Z,101049.88
2022-08-22T10:43:16.887Z,101054.69
2022-08-22T10:45:49.056Z,101049.44
2022-08-22T10:48:22.448Z,101042.44
2022-08-22T10:50:58.000Z,101048.16
2022-08-22T10:53:46.841Z,101050.06
2022-08-22T10:56:29.557Z,101051.22
2022-08-22T10:59:24.327Z,101022.75
2022-08-22T11:02:36.158Z,101037.91
2022-08-22T11:05:41.922Z,101041.94
2022-08-22T11:08:41.221Z,101045.69
2022-08-22T11:11:19.234Z,101048.88
2022-08-22T11:14:19.828Z,101039.41
2022-08-22T11:17:28.833Z,101050.06
2022-08-22T11:20:36.217Z,101044.53
2022-08-22T11:23:56.458Z,101032.38
2022-08-22T11:26:46.690Z,101038.88
2022-08-22T11:29:55.328Z,101034.25
2022-08-22T11:32:59.570Z,101033.09
2022-08-22T11:35:54.913Z,101032.31
2022-08-22T11:38:57.290Z,101039.38
2022-08-22T11:41:31.441Z,101032.16
2022-08-22T11:44:07.824Z,101036.41
2022-08-22T11:46:48.078Z,101039.56
2022-08-22T11:49:39.373Z,101031.88
2022-08-22T11:52:15.353Z,101030.38
2022-08-22T11:54:54.250Z,101043.03
2022-08-22T11:57:37.833Z,101032.09
2022-08-22T12:00:23.930Z,101031.66
2022-08-22T12:03:23.226Z,101035.72
2022-08-22T12:06:17.553Z,101034.88
2022-08-22T12:08:49.634Z,101036.50
2022-08-22T12:12:13.271Z,101030.91
2022-08-22T12:15:11.597Z,101025.81
2022-08-22T12:18:21.200Z,101021.28
2022-08-22T12:21:21.475Z,101018.00
2022-08-22T12:24:20.864Z,101020.22
2022-08-22T12:27:28.744Z,101006.16
2022-08-22T12:30:13.846Z,101008.41
2022-08-22T12:33:23.415Z,101006.44
2022-08-22T12:36:28.861Z,101003.03
2022-08-22T12:39:27.464Z,100992.03
2022-08-22T12:42:22.221Z,100997.47
2022-08-22T12:45:12.681Z,100994.69
2022-08-22T12:48:14.776Z,100983.84
2022-08-22T12:51:22.480Z,100981.16
2022-08-22T12:54:21.105Z,100980.41
2022-08-22T12:57:00.638Z,100982.44
2022-08-22T12:59:42.338Z,100971.28
2022-08-22T13:02:35.047Z,100967.66
2022-08-22T13:05:19.604Z,100970.22
2022-08-22T13:08:05.166Z,100961.53
2022-08-22T13:10:47.541Z,100959.78
2022-08-22T13:14:00.214Z,100959.44
2022-08-22T13:16:49.014Z,100957.38
2022-08-22T13:19:23.948Z,100947.09
2022-08-22T13:22:19.631Z,100959.09
2022-08-22T13:24:57.006Z,100956.16
2022-08-22T13:27:39.820Z,100953.09
2022-08-22T13:30:34.718Z,100944.34
2022-08-22T13:33:35.465Z,100930.66
2022-08-22T13:36:08.089Z,100927.28
2022-08-22T13:38:56.426Z,100921.97
2022-08-22T13:41:33.180Z,100930.88
2022-08-22T13:44:08.610Z,100928.16
2022-08-22T13:46:48.157Z,100924.97
2022-08-22T13:49:43.150Z,100913.91
2022-08-22T13:52:31.368Z,100921.00
2022-08-22T13:55:30.105Z,100928.19
2022-08-22T13:58:02.770Z,100920.47
2022-08-22T14:01:25.583Z,100921.25
2022-08-22T14:04:28.296Z,100926.22
2022-08-22T14:07:04.968Z,100929.59
2022-08-22T14:09:58.018Z,100917.91
2022-08-22T14:12:50.755Z,100907.88
2022-08-22T14:15:44.634Z,100908.00
2022-08-22T14:18:18.788Z,100912.56
2022-08-22T14:20:50.748Z,100918.00
2022-08-22T14:23:29.107Z,100910.66
2022-08-22T14:25:57.334Z,100913.00
2022-08-22T14:28:33.372Z,100897.44
2022-08-22T14:31:13.303Z,100904.59
2022-08-22T14:33:56.385Z,100895.34
2022-08-22T14:36:40.338Z,100899.06
2022-08-22T14:39:42.837Z,100901.16
2022-08-22T14:42:44.384Z,100894.41
2022-08-22T14:45:29.165Z,100857.69
2022-08-22T14:48:30.871Z,100876.66
2022-08-22T14:51:30.061Z,100864.16
2022-08-22T14:54:23.497Z,100861.66
2022-08-22T14:57:04.260Z,100874.63
2022-08-22T15:00:02.921Z,100854.47
2022-08-22T15:02:53.407Z,100858.06
2022-08-22T15:05:22.771Z,100883.88
2022-08-22T15:08:00.876Z,100856.66
2022-08-22T15:10:41.900Z,100861.41
2022-08-22T15:13:12.387Z,100856.91
2022-08-22T15:16:22.194Z,100869.75
2022-08-22T15:18:51.783Z,100876.78
2022-08-22T15:21:31.755Z,100865.06
2022-08-22T15:24:06.536Z,100886.16
2022-08-22T15:26:40.407Z,100882.19
2022-08-22T15:29:20.337Z,100886.53
2022-08-22T15:31:52.368Z,100865.75
2022-08-22T15:34:39.989Z,100869.72
2022-08-22T15:37:22.726Z,100873.00
2022-08-22T15:40:12.044Z,100871.66
2022-08-22T15:42:58.995Z,100868.41
2022-08-22T15:45:37.316Z,100871.78
2022-08-22T15:48:36.157Z,100873.47
2022-08-22T15:51:15.994Z,100865.75
2022-08-22T15:54:03.217Z,100857.03
2022-08-22T15:57:24.883Z,100846.47
2022-08-22T16:00:28.027Z,100820.88
2022-08-22T16:03:12.195Z,100845.63
2022-08-22T16:06:11.741Z,100817.56
2022-08-22T16:08:57.516Z,100826.25
2022-08-22T16:11:38.007Z,100820.53
2022-08-22T16:17:43.906Z,100838.81
2022-08-22T16:20:19.760Z,100855.03
2022-08-22T16:22:56.526Z,100849.81
2022-08-22T16:26:34.720Z,100850.00
2022-08-22T16:29:05.511Z,100837.00
2022-08-22T16:31:47.543Z,100854.88
2022-08-22T16:34:20.384Z,100847.28
2022-08-22T16:37:05.856Z,100838.78
2022-08-22T16:39:51.392Z,100846.31
2022-08-22T16:42:24.275Z,100845.09
2022-08-22T16:45:05.203Z,100843.84
2022-08-22T16:47:41.792Z,100840.09
2022-08-22T16:50:18.582Z,100842.97
2022-08-22T16:53:20.626Z,100839.25
2022-08-22T16:56:18.643Z,100841.72
2022-08-22T16:59:03.326Z,100831.63
2022-08-22T17:02:35.520Z,100841.22
2022-08-22T17:05:38.738Z,100847.16
2022-08-22T17:08:59.802Z,100843.66
2022-08-22T17:11:47.184Z,100853.31
2022-08-22T17:14:35.428Z,100843.75
2022-08-22T17:17:30.186Z,100839.16
2022-08-22T17:20:34.455Z,100843.84
2022-08-22T17:23:41.996Z,100840.28
2022-08-22T17:26:39.744Z,100855.22
2022-08-22T17:29:32.895Z,100846.94
2022-08-22T17:32:37.988Z,100848.25
2022-08-22T17:35:24.214Z,100853.38
2022-08-22T17:38:23.009Z,100858.09
2022-08-22T17:41:00.931Z,100864.97
2022-08-22T17:43:49.854Z,100862.47
2022-08-22T17:46:52.774Z,100884.38
2022-08-22T17:49:30.558Z,100889.09
2022-08-22T17:52:01.464Z,100887.44
2022-08-22T17:54:45.338Z,100900.03
2022-08-22T17:57:34.602Z,100900.03
2022-08-22T18:00:12.765Z,100916.72
2022-08-22T18:02:59.165Z,100921.03
2022-08-22T18:05:50.696Z,100913.03
2022-08-22T18:09:13.437Z,100931.13
2022-08-22T18:11:53.170Z,100930.75
2022-08-22T18:14:47.757Z,100970.09
2022-08-22T18:17:32.567Z,100963.88
2022-08-22T18:20:25.413Z,100979.38
2022-08-22T18:23:36.073Z,100979.53
2022-08-22T18:26:47.338Z,100996.66
2022-08-22T18:29:25.855Z,100997.88
2022-08-22T18:32:04.677Z,100999.94
2022-08-22T18:34:45.933Z,100997.50
2022-08-22T18:37:21.429Z,100996.66
2022-08-22T18:40:26.056Z,100991.09
2022-08-22T18:43:07.555Z,100979.25
2022-08-22T18:45:46.755Z,100970.19
2022-08-22T18:48:28.781Z,100964.97
2022-08-22T18:51:24.822Z,100958.22
2022-08-22T18:54:55.052Z,100960.78
2022-08-22T18:57:47.161Z,100956.78
2022-08-22T19:00:17.255Z,100958.69
2022-08-22T19:03:27.987Z,100951.84
2022-08-22T19:06:33.178Z,100949.97
2022-08-22T19:09:48.713Z,100950.16
2022-08-22T19:12:22.970Z,100941.44
2022-08-22T19:15:26.582Z,100940.59
2022-08-22T19:18:17.381Z,100939.28
2022-08-22T19:21:32.138Z,100942.44
2022-08-22T19:23:59.698Z,100946.38
2022-08-22T19:26:39.793Z,100940.59
2022-08-22T19:29:18.234Z,100937.31
2022-08-22T19:31:58.332Z,100941.88
2022-08-22T19:34:28.569Z,100924.63
2022-08-22T19:37:30.879Z,100934.38
2022-08-22T19:40:09.193Z,100928.34
2022-08-22T19:42:39.459Z,100939.81
2022-08-22T19:45:06.517Z,100937.91
2022-08-22T19:47:40.851Z,100937.22
2022-08-22T19:50:24.919Z,100929.56
2022-08-22T19:53:24.459Z,100911.31
2022-08-22T19:56:29.357Z,100918.50
2022-08-22T19:59:24.236Z,100914.63
2022-08-22T20:02:35.557Z,100899.09
2022-08-22T20:05:17.734Z,100912.22
2022-08-22T20:08:12.521Z,100913.03
2022-08-22T20:11:05.224Z,100911.59
2022-08-22T20:13:35.592Z,100910.09
2022-08-22T20:16:13.509Z,100913.88
2022-08-22T20:19:08.920Z,100917.03
2022-08-22T20:21:43.978Z,100921.66
2022-08-22T20:24:28.952Z,100922.91
2022-08-22T20:27:13.320Z,100923.94
2022-08-22T20:29:51.656Z,100925.75
2022-08-22T20:32:23.011Z,100920.25
2022-08-22T20:34:57.200Z,100920.34
2022-08-22T20:38:05.763Z,100915.91
2022-08-22T20:40:55.587Z,100915.75
2022-08-22T20:43:49.590Z,100925.38
2022-08-22T20:46:44.035Z,100923.53
2022-08-22T20:49:22.582Z,100909.91
2022-08-22T20:52:01.129Z,100917.09
2022-08-22T20:54:33.489Z,100922.59
2022-08-22T20:57:16.971Z,100923.84
2022-08-22T21:00:16.809Z,100925.06
2022-08-22T21:03:07.330Z,100919.94
2022-08-22T21:05:41.277Z,100923.38
2022-08-22T21:08:21.738Z,100917.41
2022-08-22T21:11:21.526Z,100919.88
2022-08-22T21:13:48.828Z,100924.59
2022-08-22T21:16:33.562Z,100926.03
2022-08-22T21:19:04.027Z,100912.84
2022-08-22T21:21:35.127Z,100913.09
2022-08-22T21:24:08.186Z,100908.66
2022-08-22T21:26:59.362Z,100916.41
2022-08-22T21:29:32.847Z,100915.09
2022-08-22T21:32:43.515Z,100920.31
2022-08-22T21:35:32.449Z,100915.53
2022-08-22T21:38:01.149Z,100921.88
2022-08-22T21:40:36.277Z,100914.84
2022-08-22T21:43:28.700Z,100921.25
2022-08-22T21:45:56.006Z,100926.63
2022-08-22T21:48:46.449Z,100921.59
2022-08-22T21:51:42.696Z,100926.75
2022-08-22T21:54:28.351Z,100927.78
2022-08-22T21:57:15.913Z,100928.53
2022-08-22T21:59:59.675Z,100923.59
2022-08-22T22:02:40.569Z,100931.47
2022-08-22T22:05:15.893Z,100929.38
2022-08-22T22:07:46.814Z,100929.38
2022-08-22T22:10:18.168Z,100923.72
2022-08-22T22:12:47.636Z,100928.16
2022-08-22T22:15:18.870Z,100927.13
2022-08-22T22:17:46.087Z,100930.72
2022-08-22T22:20:16.205Z,100929.88
2022-08-22T22:22:46.317Z,100932.63
2022-08-22T22:25:40.570Z,100926.47
2022-08-22T22:28:08.214Z,100924.94
2022-08-22T22:30:35.904Z,100931.06
2022-08-22T22:33:02.855Z,100930.22
2022-08-22T22:35:30.944Z,100933.47
2022-08-22T22:37:57.962Z,100930.03
2022-08-22T22:40:25.075Z,100940.66
2022-08-22T22:42:52.088Z,100945.94
2022-08-22T22:45:19.097Z,100942.53
2022-08-22T22:47:45.990Z,100938.94
2022-08-22T22:50:13.114Z,100941.38
2022-08-22T22:52:40.783Z,100941.00
2022-08-22T22:55:09.461Z,100951.28
2022-08-22T22:57:46.798Z,100949.78
2022-08-22T23:00:15.005Z,100948.06
2022-08-22T23:02:42.972Z,100957.16
2022-08-22T23:05:11.130Z,100956.28
2022-08-22T23:07:39.202Z,100946.53
2022-08-22T23:10:08.712Z,100943.13
2022-08-22T23:12:37.221Z,100943.19
2022-08-22T23:15:06.800Z,100945.75
2022-08-22T23:17:35.263Z,100943.91
2022-08-22T23:20:02.614Z,100962.94
2022-08-22T23:22:30.182Z,100949.94
2022-08-22T23:24:57.260Z,100961.22
2022-08-22T23:27:24.222Z,100967.56
2022-08-22T23:29:51.349Z,100964.81
2022-08-22T23:32:18.773Z,100965.84
2022-08-22T23:34:48.654Z,100962.25
2022-08-22T23:37:20.391Z,100970.47
2022-08-22T23:39:48.085Z,100959.69
2022-08-22T23:42:16.089Z,100966.88
2022-08-22T23:44:45.195Z,100965.84
2022-08-22T23:47:14.642Z,100971.31
2022-08-22T23:49:42.644Z,100976.81
2022-08-22T23:52:12.006Z,100971.88
2022-08-22T23:54:39.146Z,100961.63
2022-08-22T23:57:11.416Z,100970.81
2022-08-22T23:59:44.651Z,100967.25
